Amity, Maine
Current Conditions -  °F | °C
As of 8:53 AM on Wednesday 28 Jan 2015 (Local Time) from KHUL Reporting Station
Light Snow Light Snow  
Wind Chill: -3°   Ceiling: 1600
Heat Index: 13°   Visibility: 1mi
Dew Point:   Wind: 16mph
Humidity: 77%   Direction: 360°N
Pressure: 29.79"   Gusts: NA
Location:  45.8952°N, 67.8479°W
Report Text: KHUL 281353Z AUTO 36014KT 1SM -SN VV016 M11/M14 A2979 RMK AO2 SLP101 P0000 T11061139
Loading
Personal Weather Stations






























Interactive Weather Map New forecast layout! Learn more

10-Day Weather Forecast

Advertisements
Track Severe Weather on mobile